Time;durP1;ratioP1;P1;durP2;ratioP2;P2;SDS_P1;SDS_P2;PMS_P1;PMS_P2;Temp;Humidity;BMP_temperature;BMP_pressure;BME280_temperature;BME280_humidity;BME280_pressure;Samples;Min_cycle;Max_cycle;Signal;HPM_P1;HPM_P2
2023/12/19 00:00:06;;;;;;;7.73;5.23;;;-1.30;99.90;;;;;;5024249;28;20048;-32
2023/12/19 00:02:32;;;;;;;9.10;5.40;;;-1.40;99.90;;;;;;5046596;28;21351;-32
2023/12/19 00:04:57;;;;;;;4.95;3.92;;;-1.30;99.90;;;;;;5044740;28;20132;-34
2023/12/19 00:07:23;;;;;;;5.65;3.95;;;-1.30;99.90;;;;;;5051701;28;20403;-30
2023/12/19 00:09:49;;;;;;;6.22;4.72;;;-1.20;99.90;;;;;;5042577;28;20618;-38
2023/12/19 00:12:15;;;;;;;4.78;4.30;;;-1.20;99.90;;;;;;5042983;28;20108;-38
2023/12/19 00:14:40;;;;;;;5.53;3.88;;;-1.20;99.90;;;;;;5043073;28;20032;-41
2023/12/19 00:17:06;;;;;;;4.05;3.72;;;-1.20;99.90;;;;;;5045486;28;20044;-38
2023/12/19 00:19:31;;;;;;;4.32;3.92;;;-1.10;99.90;;;;;;5047298;28;20036;-38
2023/12/19 00:21:57;;;;;;;8.23;3.95;;;-1.20;99.90;;;;;;5041253;28;20029;-41
2023/12/19 00:24:23;;;;;;;6.72;5.35;;;-1.30;99.90;;;;;;5046614;28;20361;-40
2023/12/19 00:26:48;;;;;;;6.03;4.20;;;-1.30;99.90;;;;;;5048278;28;20487;-35
2023/12/19 00:29:14;;;;;;;5.57;4.97;;;-1.20;99.90;;;;;;5045212;28;20412;-32
2023/12/19 00:31:40;;;;;;;5.00;4.28;;;-1.20;99.90;;;;;;5043311;28;20376;-32
2023/12/19 00:34:05;;;;;;;5.28;4.07;;;-1.20;99.90;;;;;;5056939;28;20392;-29
2023/12/19 00:36:31;;;;;;;7.20;4.82;;;-1.20;99.90;;;;;;5042577;28;20029;-34
2023/12/19 00:38:57;;;;;;;6.68;5.47;;;-1.10;99.90;;;;;;5045240;28;20033;-33
2023/12/19 00:41:22;;;;;;;6.10;3.97;;;-1.20;99.90;;;;;;5049100;28;20029;-31
2023/12/19 00:43:48;;;;;;;6.55;4.85;;;-1.10;99.90;;;;;;5050755;28;20036;-30
2023/12/19 00:46:13;;;;;;;5.45;4.53;;;-1.10;99.90;;;;;;5043017;28;20383;-37
2023/12/19 00:48:39;;;;;;;4.43;3.20;;;-1.10;99.90;;;;;;5048529;28;20502;-29
2023/12/19 00:51:10;;;;;;;4.68;4.05;;;-1.10;99.90;;;;;;5047720;28;20041;-30
2023/12/19 00:53:36;;;;;;;4.63;3.88;;;-1.10;99.90;;;;;;5041374;28;20025;-32
2023/12/19 00:56:01;;;;;;;3.85;3.47;;;-1.10;99.90;;;;;;5045806;28;20021;-30
2023/12/19 00:58:27;;;;;;;5.00;3.78;;;-1.20;99.90;;;;;;5040267;28;20373;-34
2023/12/19 01:00:52;;;;;;;4.50;3.80;;;-1.30;99.90;;;;;;5043762;28;20036;-29
2023/12/19 01:03:18;;;;;;;4.32;3.47;;;-1.30;99.90;;;;;;5049819;28;20028;-33
2023/12/19 01:05:44;;;;;;;6.07;4.28;;;-1.30;99.90;;;;;;5041893;28;20024;-34
2023/12/19 01:08:09;;;;;;;5.32;4.82;;;-1.30;99.90;;;;;;5043890;28;20033;-30
2023/12/19 01:10:35;;;;;;;6.50;4.07;;;-1.30;99.90;;;;;;5042234;28;20036;-30
2023/12/19 01:13:02;;;;;;;5.95;4.95;;;-1.30;99.90;;;;;;5044017;28;20029;-30
2023/12/19 01:15:27;;;;;;;4.28;3.60;;;-1.40;99.90;;;;;;5043806;28;20477;-34
2023/12/19 01:17:53;;;;;;;4.63;3.63;;;-1.40;99.90;;;;;;5061055;28;20028;-34
2023/12/19 01:20:19;;;;;;;2.30;2.20;;;-1.40;99.90;;;;;;5044378;28;20452;-42
2023/12/19 01:22:45;;;;;;;4.80;4.38;;;-1.50;99.90;;;;;;5043527;28;20040;-39
2023/12/19 01:25:10;;;;;;;3.20;2.92;;;-1.80;99.90;;;;;;5045798;28;20388;-41
2023/12/19 01:27:36;;;;;;;4.10;3.78;;;-1.90;99.90;;;;;;5042186;28;20128;-33
2023/12/19 01:30:02;;;;;;;4.50;3.92;;;-1.90;99.90;;;;;;5043039;28;20040;-41
2023/12/19 01:32:27;;;;;;;7.10;4.82;;;-1.80;99.90;;;;;;5022830;28;20034;-33
2023/12/19 01:34:53;;;;;;;5.65;4.45;;;-1.70;99.90;;;;;;5023282;28;20139;-40
2023/12/19 01:37:19;;;;;;;6.03;4.28;;;-1.70;99.90;;;;;;5025677;28;20029;-34
2023/12/19 01:39:44;;;;;;;8.60;4.32;;;-1.60;99.90;;;;;;5023893;28;20040;-31
2023/12/19 01:42:10;;;;;;;5.82;4.88;;;-1.70;99.90;;;;;;5054225;28;20124;-31
2023/12/19 01:44:37;;;;;;;5.13;3.38;;;-1.60;99.90;;;;;;5020023;28;20100;-33
2023/12/19 01:47:03;;;;;;;3.75;2.63;;;-1.60;99.90;;;;;;5023710;28;20816;-32
2023/12/19 01:49:29;;;;;;;3.95;3.58;;;-1.60;99.90;;;;;;5023924;28;20438;-33
2023/12/19 01:51:55;;;;;;;4.78;3.90;;;-1.70;99.90;;;;;;5019754;28;20041;-31
2023/12/19 01:54:21;;;;;;;4.38;3.95;;;-1.70;99.90;;;;;;5037119;28;20223;-31
2023/12/19 01:56:47;;;;;;;6.35;4.30;;;-1.60;99.90;;;;;;5015495;28;20060;-35
2023/12/19 01:59:14;;;;;;;6.15;4.22;;;-1.70;99.90;;;;;;5017840;28;20032;-37
2023/12/19 02:01:42;;;;;;;12.82;8.82;;;-1.80;99.90;;;;;;5019080;28;20046;-32
2023/12/19 02:04:10;;;;;;;40.78;18.63;;;-1.80;99.90;;;;;;5009626;28;20053;-38
2023/12/19 02:06:35;;;;;;;34.33;16.07;;;-1.70;99.90;;;;;;5013784;28;20033;-34
2023/12/19 02:09:02;;;;;;;27.88;12.98;;;-1.70;99.90;;;;;;5017472;28;20399;-39
2023/12/19 02:11:28;;;;;;;21.70;10.77;;;-1.70;99.90;;;;;;5016871;28;20098;-32
2023/12/19 02:13:56;;;;;;;13.02;7.75;;;-1.70;99.90;;;;;;5017432;22;20958;-74
2023/12/19 02:16:26;;;;;;;11.80;6.00;;;-1.70;99.90;;;;;;4985049;28;20030;-74
2023/12/19 02:19:13;;;;;;;5.35;4.85;;;-1.70;99.90;;;;;;4981947;28;20031;-74
2023/12/19 02:21:39;;;;;;;8.48;4.32;;;-1.70;99.90;;;;;;4982852;28;20034;-74
2023/12/19 02:24:05;;;;;;;8.48;5.07;;;-1.70;99.90;;;;;;4987202;28;20038;-74
2023/12/19 02:26:31;;;;;;;7.00;5.05;;;-1.70;99.90;;;;;;4990781;28;20415;-74
2023/12/19 02:28:57;;;;;;;5.22;3.88;;;-1.90;99.90;;;;;;4995272;28;20038;-72
2023/12/19 02:31:22;;;;;;;4.95;3.70;;;-1.80;99.90;;;;;;4999141;28;20143;-73
2023/12/19 02:33:48;;;;;;;6.00;4.28;;;-1.80;99.90;;;;;;5016640;28;20053;-74
2023/12/19 02:36:16;;;;;;;6.25;4.45;;;-1.80;99.90;;;;;;5011839;28;20074;-73
2023/12/19 02:38:41;;;;;;;3.95;3.65;;;-1.80;99.90;;;;;;5014502;28;20030;-72
2023/12/19 02:41:10;;;;;;;3.92;3.55;;;-1.70;99.90;;;;;;5014601;28;20459;-74
2023/12/19 02:43:36;;;;;;;3.75;3.45;;;-1.70;99.90;;;;;;5036418;28;20089;-74
2023/12/19 02:46:02;;;;;;;4.60;3.60;;;-1.70;99.90;;;;;;5031609;28;20036;-73
2023/12/19 02:48:27;;;;;;;3.47;3.17;;;-1.70;99.90;;;;;;5019654;28;20038;-74
2023/12/19 02:50:53;;;;;;;3.42;3.22;;;-1.60;99.90;;;;;;5019487;28;20026;-73
2023/12/19 02:53:18;;;;;;;3.35;2.33;;;-1.80;99.90;;;;;;5017202;28;20092;-73
2023/12/19 02:55:44;;;;;;;3.92;3.30;;;-2.00;99.90;;;;;;5019429;28;20034;-74
2023/12/19 02:58:10;;;;;;;1.90;1.83;;;-2.10;99.90;;;;;;5016316;28;20113;-74
2023/12/19 03:00:35;;;;;;;2.65;2.35;;;-2.20;99.90;;;;;;5015429;28;20041;-73
2023/12/19 03:03:01;;;;;;;5.57;3.85;;;-2.30;99.90;;;;;;4997747;28;20035;-72
2023/12/19 03:05:27;;;;;;;3.65;3.08;;;-2.20;99.90;;;;;;5000720;28;20026;-73
2023/12/19 03:07:53;;;;;;;4.57;3.60;;;-2.20;99.90;;;;;;4994122;28;20120;-73
2023/12/19 03:10:19;;;;;;;2.05;1.95;;;-2.10;99.90;;;;;;4995027;28;20074;-73
2023/12/19 03:12:44;;;;;;;3.80;3.38;;;-2.00;99.90;;;;;;4998530;28;20034;-75
2023/12/19 03:15:10;;;;;;;3.47;3.22;;;-2.20;99.90;;;;;;4994443;28;20081;-73
2023/12/19 03:17:36;;;;;;;3.03;2.83;;;-2.20;99.90;;;;;;4998143;28;20030;-73
2023/12/19 03:20:02;;;;;;;4.65;3.10;;;-2.20;99.90;;;;;;4996481;28;20053;-73
2023/12/19 03:22:28;;;;;;;4.35;4.00;;;-2.10;99.90;;;;;;5005283;28;20046;-78
2023/12/19 03:24:56;;;;;;;3.50;3.08;;;-2.10;99.90;;;;;;5003455;28;20435;-79
2023/12/19 03:27:21;;;;;;;3.60;3.30;;;-2.00;99.90;;;;;;5005989;28;20107;-78
2023/12/19 03:29:47;;;;;;;4.15;3.75;;;-2.00;99.90;;;;;;5003089;28;20077;-78
2023/12/19 03:32:13;;;;;;;8.55;3.25;;;-2.00;99.90;;;;;;5015359;28;20046;-78
2023/12/19 03:34:38;;;;;;;4.25;3.00;;;-2.00;99.90;;;;;;5022373;28;20034;-78
2023/12/19 03:37:04;;;;;;;4.82;3.55;;;-2.00;99.90;;;;;;5019668;28;20041;-79
2023/12/19 03:39:30;;;;;;;15.35;8.75;;;-2.00;99.90;;;;;;5021549;28;20606;-78
2023/12/19 03:41:55;;;;;;;11.25;7.60;;;-2.00;99.90;;;;;;5019468;28;20602;-73
2023/12/19 03:44:21;;;;;;;8.77;6.47;;;-2.00;99.90;;;;;;5019152;28;20026;-73
2023/12/19 03:46:47;;;;;;;10.98;6.18;;;-1.90;99.90;;;;;;5017100;28;20044;-72
2023/12/19 03:49:13;;;;;;;3.83;3.50;;;-1.90;99.90;;;;;;5020183;28;20029;-73
2023/12/19 03:51:38;;;;;;;4.50;3.35;;;-1.80;99.90;;;;;;5014025;28;20033;-74
2023/12/19 03:54:04;;;;;;;4.53;4.13;;;-1.80;99.90;;;;;;5019089;28;20387;-73
2023/12/19 03:56:30;;;;;;;1.70;1.65;;;-1.80;99.90;;;;;;5018669;28;20040;-76
2023/12/19 03:58:55;;;;;;;6.13;3.63;;;-1.80;99.90;;;;;;5017967;28;20072;-73
2023/12/19 04:01:23;;;;;;;3.17;2.95;;;-1.80;99.90;;;;;;5018201;28;20049;-73
2023/12/19 04:03:49;;;;;;;9.48;2.70;;;-1.90;99.90;;;;;;5015719;28;20033;-74
2023/12/19 04:06:15;;;;;;;2.80;2.53;;;-1.80;99.90;;;;;;5016185;28;20139;-73
2023/12/19 04:08:40;;;;;;;3.25;2.95;;;-1.80;99.90;;;;;;5017064;28;20044;-74
2023/12/19 04:11:06;;;;;;;4.15;3.50;;;-1.90;99.90;;;;;;5012819;28;20030;-73
2023/12/19 04:13:31;;;;;;;3.58;2.85;;;-1.90;99.90;;;;;;5018423;28;20415;-74
2023/12/19 04:15:57;;;;;;;2.85;2.65;;;-1.90;99.90;;;;;;5012550;28;20033;-73
2023/12/19 04:18:23;;;;;;;4.03;3.10;;;-1.90;99.90;;;;;;5013105;28;20029;-73
2023/12/19 04:20:48;;;;;;;3.40;3.10;;;-1.90;99.90;;;;;;5015867;28;20045;-73
2023/12/19 04:23:14;;;;;;;3.05;2.80;;;-2.00;99.90;;;;;;5017951;28;20140;-73
2023/12/19 04:25:39;;;;;;;2.80;2.60;;;-2.00;99.90;;;;;;5018408;28;20034;-73
2023/12/19 04:28:05;;;;;;;2.97;2.63;;;-2.10;99.90;;;;;;5019219;28;20407;-74
2023/12/19 04:30:31;;;;;;;3.60;3.28;;;-2.10;99.90;;;;;;5018716;28;20542;-74
2023/12/19 04:32:56;;;;;;;2.95;2.75;;;-2.10;99.90;;;;;;5016132;28;20092;-73
2023/12/19 04:35:22;;;;;;;3.75;3.30;;;-2.00;99.90;;;;;;5014977;28;20041;-74
2023/12/19 04:37:47;;;;;;;3.50;2.47;;;-2.00;99.90;;;;;;5015502;28;20064;-74
2023/12/19 04:40:13;;;;;;;4.45;3.28;;;-2.00;99.90;;;;;;5013169;28;20048;-74
2023/12/19 04:42:39;;;;;;;4.28;2.83;;;-1.90;99.90;;;;;;5014571;28;20025;-75
2023/12/19 04:45:05;;;;;;;4.32;3.03;;;-2.00;99.90;;;;;;5016985;28;20148;-73
2023/12/19 04:47:31;;;;;;;2.50;2.40;;;-1.80;99.90;;;;;;5015820;28;20691;-74
2023/12/19 04:49:56;;;;;;;6.72;3.10;;;-1.80;99.90;;;;;;5018917;28;20050;-74
2023/12/19 04:52:22;;;;;;;2.50;2.38;;;-1.80;99.90;;;;;;5013586;28;20446;-73
2023/12/19 04:54:48;;;;;;;3.38;2.35;;;-1.70;99.90;;;;;;5031961;28;20463;-73
2023/12/19 04:57:14;;;;;;;2.63;2.42;;;-1.70;99.90;;;;;;5016971;28;20054;-74
2023/12/19 04:59:40;;;;;;;3.47;2.63;;;-1.70;99.90;;;;;;5018112;28;20658;-74
2023/12/19 05:02:06;;;;;;;2.40;2.22;;;-1.70;99.90;;;;;;4997206;28;20042;-73
2023/12/19 05:04:32;;;;;;;3.03;2.75;;;-1.70;99.90;;;;;;4996534;28;20033;-74
2023/12/19 05:06:57;;;;;;;5.03;3.65;;;-1.80;99.90;;;;;;4993862;28;20043;-74
2023/12/19 05:09:25;;;;;;;7.18;3.17;;;-1.70;99.90;;;;;;4996420;28;20058;-73
2023/12/19 05:11:51;;;;;;;3.72;3.42;;;-1.70;99.90;;;;;;4993408;28;20039;-74
2023/12/19 05:14:16;;;;;;;3.70;3.40;;;-1.70;99.90;;;;;;4995221;28;20053;-73
2023/12/19 05:16:42;;;;;;;6.53;5.90;;;-1.80;99.90;;;;;;4995044;28;20042;-74
2023/12/19 05:19:08;;;;;;;3.72;3.42;;;-1.70;99.90;;;;;;4997917;28;20101;-73
2023/12/19 05:21:39;;;;;;;7.45;5.85;;;-1.70;99.90;;;;;;4996456;28;20049;-74
2023/12/19 05:24:05;;;;;;;4.53;2.95;;;-1.70;99.90;;;;;;5008491;28;20149;-73
2023/12/19 05:26:31;;;;;;;2.20;2.03;;;-1.70;99.90;;;;;;4994310;28;20100;-73
2023/12/19 05:28:57;;;;;;;2.05;1.98;;;-1.70;99.90;;;;;;4996753;28;20034;-73
2023/12/19 05:31:22;;;;;;;3.10;2.80;;;-1.80;99.90;;;;;;4993149;28;20042;-72
2023/12/19 05:33:48;;;;;;;3.05;2.83;;;-1.80;99.90;;;;;;4995049;28;20033;-74
2023/12/19 05:36:14;;;;;;;3.28;1.98;;;-1.80;99.90;;;;;;4992754;28;20089;-73
2023/12/19 05:38:40;;;;;;;2.00;1.90;;;-1.80;99.90;;;;;;4998230;28;20034;-74
2023/12/19 05:41:05;;;;;;;4.07;3.60;;;-1.90;99.90;;;;;;4996584;28;20037;-76
2023/12/19 05:43:31;;;;;;;6.40;3.67;;;-1.90;99.90;;;;;;4997263;28;20053;-74
2023/12/19 05:45:59;;;;;;;4.38;3.90;;;-1.80;99.90;;;;;;4995121;28;20101;-73
2023/12/19 05:48:24;;;;;;;8.32;7.20;;;-1.80;99.90;;;;;;5000236;28;20037;-73
2023/12/19 05:50:50;;;;;;;4.90;4.47;;;-1.70;99.90;;;;;;4998981;28;20034;-72
2023/12/19 05:53:16;;;;;;;7.97;5.43;;;-1.70;99.90;;;;;;4996287;28;20081;-72
2023/12/19 05:55:44;;;;;;;7.90;4.82;;;-1.60;99.90;;;;;;4994369;28;20031;-73
2023/12/19 05:58:10;;;;;;;7.15;4.72;;;-1.60;99.90;;;;;;5005533;28;20035;-73
2023/12/19 06:00:36;;;;;;;7.20;4.57;;;-1.70;99.90;;;;;;5001331;28;20107;-79
2023/12/19 06:03:02;;;;;;;9.27;5.28;;;-1.70;99.90;;;;;;5019626;28;20136;-79
2023/12/19 06:05:29;;;;;;;3.92;3.65;;;-1.70;99.90;;;;;;5015715;28;20034;-79
2023/12/19 06:07:57;;;;;;;4.07;2.77;;;-1.50;99.90;;;;;;5020785;28;20037;-79
2023/12/19 06:10:22;;;;;;;4.50;4.07;;;-1.60;99.90;;;;;;5035919;28;20334;-72
2023/12/19 06:12:48;;;;;;;3.20;2.95;;;-1.70;99.90;;;;;;5017903;28;20026;-73
2023/12/19 06:15:23;;;;;;;3.75;3.45;;;-1.80;99.90;;;;;;5018319;28;20065;-73
2023/12/19 06:17:49;;;;;;;4.10;3.15;;;-1.70;99.90;;;;;;5022850;28;20388;-73
2023/12/19 06:20:15;;;;;;;8.70;3.45;;;-1.70;99.90;;;;;;5018294;28;20021;-73
2023/12/19 06:22:44;;;;;;;3.30;2.97;;;-1.70;99.90;;;;;;5011983;28;20489;-73
2023/12/19 06:25:09;;;;;;;6.03;4.57;;;-1.80;99.90;;;;;;5009908;28;20044;-73
2023/12/19 06:27:35;;;;;;;6.93;5.82;;;-1.80;99.90;;;;;;5012150;28;20021;-73
2023/12/19 06:30:02;;;;;;;2.55;2.45;;;-1.70;99.90;;;;;;5017291;28;20033;-74
2023/12/19 06:32:28;;;;;;;2.03;1.40;;;-1.50;99.90;;;;;;5021652;28;20034;-73
2023/12/19 06:34:55;;;;;;;3.00;2.70;;;-1.60;99.90;;;;;;5014043;28;20124;-73
2023/12/19 06:37:21;;;;;;;3.67;2.83;;;-1.70;99.90;;;;;;5016430;28;20033;-73
2023/12/19 06:39:46;;;;;;;2.42;2.28;;;-1.70;99.90;;;;;;5014883;28;20113;-71
2023/12/19 06:42:12;;;;;;;3.42;3.20;;;-1.70;99.90;;;;;;5007439;28;20110;-71
2023/12/19 06:44:38;;;;;;;4.32;3.45;;;-1.70;99.90;;;;;;5006447;28;20040;-74
2023/12/19 06:47:04;;;;;;;17.67;11.60;;;-1.70;99.90;;;;;;5008321;28;20046;-73
2023/12/19 06:49:29;;;;;;;42.08;28.67;;;-1.80;99.90;;;;;;5009642;28;20030;-72
2023/12/19 06:51:55;;;;;;;61.08;48.75;;;-1.70;99.90;;;;;;5014180;28;20030;-74
2023/12/19 06:54:21;;;;;;;18.33;16.58;;;-1.60;99.90;;;;;;5008696;28;20033;-73
2023/12/19 06:56:46;;;;;;;7.72;6.97;;;-1.50;99.90;;;;;;5017558;28;20550;-73
2023/12/19 06:59:13;;;;;;;8.40;4.82;;;-1.40;99.90;;;;;;5014229;28;20511;-73
2023/12/19 07:01:42;;;;;;;7.68;4.40;;;-1.30;99.90;;;;;;5021617;28;20038;-74
2023/12/19 07:04:08;;;;;;;3.35;3.10;;;-1.10;99.90;;;;;;5014237;28;20064;-74
2023/12/19 07:06:34;;;;;;;4.80;3.10;;;-1.00;99.90;;;;;;5017634;28;20038;-72
2023/12/19 07:09:04;;;;;;;5.75;3.40;;;-1.10;99.90;;;;;;5013882;28;20017;-72
2023/12/19 07:11:30;;;;;;;5.75;2.80;;;-1.20;99.90;;;;;;5015582;28;20034;-72
2023/12/19 07:13:56;;;;;;;4.15;2.70;;;-1.20;99.90;;;;;;5017456;28;20025;-73
2023/12/19 07:16:22;;;;;;;6.85;4.03;;;-1.30;99.90;;;;;;5015254;28;20014;-73
2023/12/19 07:18:49;;;;;;;3.20;2.95;;;-1.30;99.90;;;;;;5012413;28;20030;-73
2023/12/19 07:21:25;;;;;;;61.33;30.23;;;-1.20;99.90;;;;;;5019300;28;20441;-73
2023/12/19 07:23:53;;;;;;;15.57;8.27;;;-1.20;99.90;;;;;;5019575;28;20440;-73
2023/12/19 07:26:29;;;;;;;15.93;9.05;;;-1.30;99.90;;;;;;5019447;28;20035;-73
2023/12/19 07:28:59;;;;;;;61.63;25.80;;;-1.30;99.90;;;;;;5016865;28;20050;-73
2023/12/19 07:31:26;;;;;;;16.42;10.50;;;-1.20;99.90;;;;;;5016725;28;20411;-72
2023/12/19 07:34:06;;;;;;;15.35;9.55;;;-1.20;99.90;;;;;;5021576;28;20046;-73
2023/12/19 07:36:33;;;;;;;7.55;5.40;;;-1.10;99.90;;;;;;5021428;28;20033;-72
2023/12/19 07:38:59;;;;;;;51.78;24.33;;;-1.20;99.90;;;;;;5008193;28;20042;-73
2023/12/19 07:41:26;;;;;;;35.38;16.30;;;-1.30;99.90;;;;;;5015440;28;20022;-75
2023/12/19 07:44:35;;;;;;;65.17;27.07;;;-1.30;99.90;;;;;;5014098;28;20069;-73
2023/12/19 07:46:42;;;;;;;29.80;15.02;;;-1.30;99.90;;;;;;5019140;28;20046;-74
2023/12/19 07:49:12;;;;;;;42.92;19.77;;;-1.20;99.90;;;;;;5023895;28;20034;-74
2023/12/19 07:51:38;;;;;;;53.70;21.92;;;-1.20;99.90;;;;;;5017306;28;20682;-74
2023/12/19 07:54:07;;;;;;;26.63;12.18;;;-1.00;99.90;;;;;;5016664;28;20046;-73
2023/12/19 07:56:33;;;;;;;15.55;7.55;;;-0.90;99.90;;;;;;5013714;28;20026;-73
2023/12/19 07:59:10;;;;;;;21.90;11.90;;;-1.00;99.90;;;;;;5018206;28;20040;-73
2023/12/19 08:01:37;;;;;;;9.73;5.00;;;-1.00;99.90;;;;;;5015089;28;20048;-73
2023/12/19 08:04:12;;;;;;;11.77;6.90;;;-1.00;99.90;;;;;;5011025;28;20026;-74
2023/12/19 08:06:41;;;;;;;4.43;3.50;;;-1.00;99.90;;;;;;5017735;28;20057;-73
2023/12/19 08:09:14;;;;;;;5.85;4.55;;;-1.00;99.90;;;;;;5017262;28;20026;-73
2023/12/19 08:12:00;;;;;;;3.33;3.08;;;-0.90;99.90;;;;;;5016849;28;20038;-70
2023/12/19 08:14:27;;;;;;;4.75;4.25;;;-0.90;99.90;;;;;;5007041;28;20066;-72
2023/12/19 08:16:54;;;;;;;5.68;4.35;;;-0.90;99.90;;;;;;4992674;28;20026;-70
2023/12/19 08:19:23;;;;;;;4.47;3.97;;;-0.90;99.90;;;;;;5014022;28;20022;-71
2023/12/19 08:21:55;;;;;;;6.72;4.25;;;-0.90;99.90;;;;;;5037097;28;20041;-71
2023/12/19 08:24:21;;;;;;;3.83;3.45;;;-0.90;99.90;;;;;;5010970;28;20058;-71
2023/12/19 08:26:52;;;;;;;4.18;3.78;;;-0.90;99.90;;;;;;5011333;28;20045;-71
2023/12/19 08:29:18;;;;;;;5.28;3.72;;;-0.90;99.90;;;;;;5022243;28;20399;-72
2023/12/19 08:31:47;;;;;;;5.18;3.63;;;-0.80;99.90;;;;;;5015254;28;20041;-72
2023/12/19 08:34:20;;;;;;;3.88;2.85;;;-0.80;99.90;;;;;;5012235;28;20655;-71
2023/12/19 08:36:49;;;;;;;6.07;4.13;;;-0.70;99.90;;;;;;5015832;28;20034;-72
2023/12/19 08:39:17;;;;;;;3.28;3.08;;;-0.60;99.90;;;;;;5036031;28;20261;-70
2023/12/19 08:41:46;;;;;;;6.55;4.05;;;-0.60;99.90;;;;;;5020349;28;20102;-71
2023/12/19 08:44:12;;;;;;;5.82;4.10;;;-0.60;99.90;;;;;;5020468;28;20026;-70
2023/12/19 08:46:38;;;;;;;6.65;4.70;;;-0.50;99.90;;;;;;5019665;28;20128;-70
2023/12/19 08:49:03;;;;;;;5.90;3.88;;;-0.40;99.90;;;;;;5021595;28;20499;-70
2023/12/19 08:51:30;;;;;;;2.45;2.35;;;-0.30;99.90;;;;;;5023166;28;20034;-71
2023/12/19 08:54:10;;;;;;;3.95;3.53;;;-0.10;99.90;;;;;;5019770;28;20029;-71
2023/12/19 08:56:35;;;;;;;4.55;3.38;;;0.10;99.90;;;;;;5017773;28;20060;-71
2023/12/19 08:59:05;;;;;;;3.03;2.83;;;0.20;99.90;;;;;;5018031;28;20033;-72
2023/12/19 09:01:37;;;;;;;6.30;3.90;;;0.40;99.90;;;;;;5015090;28;20117;-71
2023/12/19 09:04:03;;;;;;;3.80;3.45;;;0.30;99.90;;;;;;5016665;28;20030;-71
2023/12/19 09:06:31;;;;;;;4.43;4.03;;;0.30;99.90;;;;;;5009808;28;20115;-72
2023/12/19 09:08:57;;;;;;;;;;;0.40;99.90;;;;;;5018922;28;20053;-71
2023/12/19 09:11:23;;;;;;;9.18;4.35;;;0.40;99.90;;;;;;5019322;28;19917;-72
2023/12/19 09:13:51;;;;;;;4.55;3.60;;;0.50;99.90;;;;;;5015779;28;20042;-72
2023/12/19 09:16:17;;;;;;;4.45;3.45;;;0.80;99.90;;;;;;5019004;28;20030;-72
2023/12/19 09:18:43;;;;;;;8.88;3.85;;;0.90;99.90;;;;;;5019145;28;20047;-72
2023/12/19 09:21:09;;;;;;;3.25;3.05;;;1.00;99.90;;;;;;5020195;28;20034;-72
2023/12/19 09:23:38;;;;;;;3.63;3.30;;;1.20;99.90;;;;;;5019049;28;20029;-72
2023/12/19 09:26:04;;;;;;;3.53;2.75;;;1.40;99.90;;;;;;5018756;28;20034;-73
2023/12/19 09:28:32;;;;;;;3.33;2.53;;;1.50;99.90;;;;;;5012247;28;20042;-72
2023/12/19 09:31:01;;;;;;;3.05;2.33;;;1.70;99.90;;;;;;5031758;28;20117;-72
2023/12/19 09:33:28;;;;;;;2.80;2.60;;;1.90;99.90;;;;;;5018206;28;20026;-72
2023/12/19 09:35:54;;;;;;;2.30;2.08;;;2.10;99.90;;;;;;5015805;28;20045;-71
2023/12/19 09:38:20;;;;;;;3.10;2.58;;;2.40;99.90;;;;;;5016288;28;20026;-71
2023/12/19 09:40:46;;;;;;;2.28;2.13;;;2.50;99.90;;;;;;5016375;28;20041;-72
2023/12/19 09:43:12;;;;;;;3.17;2.17;;;2.80;99.90;;;;;;5020827;28;20089;-72
2023/12/19 09:45:37;;;;;;;5.07;2.50;;;2.90;99.90;;;;;;5016170;28;20062;-72
2023/12/19 09:48:04;;;;;;;2.42;2.22;;;3.10;99.90;;;;;;5018974;28;20042;-72
2023/12/19 09:50:37;;;;;;;2.08;1.98;;;3.20;99.90;;;;;;5011972;28;20024;-72
2023/12/19 09:53:07;;;;;;;3.35;2.30;;;3.40;99.90;;;;;;5016512;28;20327;-73
2023/12/19 09:55:33;;;;;;;4.65;2.20;;;3.60;99.90;;;;;;5019073;28;20093;-73
2023/12/19 09:58:00;;;;;;;1.95;1.80;;;3.70;99.90;;;;;;5008047;28;20057;-72
2023/12/19 10:00:32;;;;;;;1.92;1.75;;;3.80;99.90;;;;;;5016547;28;20037;-71
2023/12/19 10:02:59;;;;;;;2.88;1.85;;;3.80;99.90;;;;;;5019426;28;20033;-72
2023/12/19 10:05:26;;;;;;;2.53;2.33;;;4.00;99.90;;;;;;5018611;28;20119;-72
2023/12/19 10:07:51;;;;;;;2.10;2.00;;;4.00;99.90;;;;;;5019636;28;20045;-72
2023/12/19 10:10:18;;;;;;;2.13;2.03;;;4.00;99.90;;;;;;5017752;28;20057;-73
2023/12/19 10:12:49;;;;;;;2.08;1.98;;;4.00;99.90;;;;;;5018938;28;20034;-71
2023/12/19 10:15:20;;;;;;;2.75;1.83;;;4.10;99.90;;;;;;5010093;28;20046;-71
2023/12/19 10:18:07;;;;;;;1.98;1.77;;;4.20;99.90;;;;;;5016144;28;20029;-71
2023/12/19 10:20:33;;;;;;;2.25;1.92;;;4.30;99.90;;;;;;5038229;28;20038;-72
2023/12/19 10:23:06;;;;;;;2.35;1.33;;;4.50;99.90;;;;;;5012625;28;20037;-72
2023/12/19 10:25:33;;;;;;;1.65;1.48;;;4.60;99.90;;;;;;5016862;28;20053;-72
2023/12/19 10:28:08;;;;;;;2.30;1.95;;;4.70;99.90;;;;;;5017252;28;20026;-72
2023/12/19 10:30:37;;;;;;;1.30;1.25;;;5.00;99.90;;;;;;5016323;28;20049;-74
2023/12/19 10:33:07;;;;;;;1.60;1.50;;;5.00;99.90;;;;;;5022639;28;20041;-76
2023/12/19 10:35:37;;;;;;;1.85;1.58;;;5.10;99.90;;;;;;5019159;28;20128;-75
2023/12/19 10:38:03;;;;;;;2.75;1.40;;;5.20;99.90;;;;;;5019898;28;20630;-77
2023/12/19 10:40:31;;;;;;;2.00;1.35;;;5.20;99.90;;;;;;5018438;28;20030;-75
2023/12/19 10:42:58;;;;;;;1.60;1.50;;;5.30;99.90;;;;;;5032562;28;20092;-75
2023/12/19 10:45:27;;;;;;;2.15;1.80;;;5.40;99.90;;;;;;5018359;28;20030;-75
2023/12/19 10:47:53;;;;;;;2.90;1.60;;;5.50;99.90;;;;;;5015882;28;20057;-75
2023/12/19 10:50:19;;;;;;;3.15;1.60;;;5.50;99.90;;;;;;5017591;28;20031;-76
2023/12/19 10:52:50;;;;;;;1.90;1.80;;;5.60;99.90;;;;;;5036476;28;20025;-77
2023/12/19 10:55:20;;;;;;;2.25;1.95;;;5.70;99.90;;;;;;5018646;28;20015;-76
2023/12/19 10:57:48;;;;;;;2.50;1.50;;;5.70;99.90;;;;;;5011175;28;20515;-77
2023/12/19 11:00:21;;;;;;;1.55;1.45;;;5.80;99.90;;;;;;5023284;28;20034;-76
2023/12/19 11:02:59;;;;;;;2.25;1.60;;;5.80;99.90;;;;;;5004157;28;20049;-79
2023/12/19 11:05:29;;;;;;;2.80;1.60;;;6.00;99.90;;;;;;5006334;28;20030;-77
2023/12/19 11:08:03;;;;;;;1.50;1.40;;;6.00;99.90;;;;;;5005425;28;20029;-76
2023/12/19 11:10:40;;;;;;;1.65;1.42;;;6.00;99.90;;;;;;5004174;28;20033;-77
2023/12/19 11:13:06;;;;;;;1.02;1.02;;;6.10;99.90;;;;;;4999972;28;20021;-76
2023/12/19 11:15:42;;;;;;;1.65;1.30;;;6.20;99.90;;;;;;5005099;28;20042;-76
2023/12/19 11:18:46;;;;;;;1.20;1.10;;;6.30;99.90;;;;;;5000206;28;20039;-77
2023/12/19 11:21:20;;;;;;;1.05;1.05;;;6.40;99.90;;;;;;5013616;28;20556;-74
2023/12/19 11:24:08;;;;;;;2.15;1.52;;;6.50;99.90;;;;;;4999956;28;20023;-76
2023/12/19 11:27:16;;;;;;;2.72;1.35;;;6.70;99.90;;;;;;5002121;28;20038;-77
2023/12/19 11:29:53;;;;;;;1.10;1.10;;;6.80;99.90;;;;;;5001983;28;20082;-75
2023/12/19 11:32:39;;;;;;;1.07;1.07;;;7.00;99.90;;;;;;4997753;28;20278;-75
2023/12/19 11:35:09;;;;;;;1.20;1.10;;;7.00;99.90;;;;;;5002491;28;20037;-75
2023/12/19 11:37:35;;;;;;;1.38;1.27;;;7.20;99.90;;;;;;5002574;28;20026;-75
2023/12/19 11:40:01;;;;;;;1.55;1.20;;;7.20;99.90;;;;;;4994879;28;20030;-75
2023/12/19 11:42:39;;;;;;;0.90;0.90;;;7.30;99.90;;;;;;5006683;28;20078;-75
2023/12/19 11:45:17;;;;;;;1.00;1.00;;;7.50;99.90;;;;;;5004492;28;20053;-75
2023/12/19 11:47:43;;;;;;;1.65;1.55;;;7.60;99.90;;;;;;5004614;28;20054;-76
2023/12/19 11:50:10;;;;;;;2.50;1.20;;;7.60;99.90;;;;;;4994158;28;20043;-75
2023/12/19 11:52:36;;;;;;;1.00;1.00;;;7.70;99.90;;;;;;5000143;28;20026;-75
2023/12/19 11:55:06;;;;;;;0.70;0.70;;;7.80;99.90;;;;;;5005986;28;20049;-76
2023/12/19 11:57:33;;;;;;;1.13;1.00;;;7.80;99.90;;;;;;4998860;28;20579;-76
2023/12/19 12:00:01;;;;;;;1.10;1.10;;;7.80;99.90;;;;;;5006527;28;20034;-76
2023/12/19 12:02:31;;;;;;;1.17;1.13;;;7.70;99.90;;;;;;4987829;28;20053;-72
2023/12/19 12:05:13;;;;;;;1.27;1.20;;;7.60;99.90;;;;;;4997562;28;20034;-71
2023/12/19 12:07:50;;;;;;;1.10;1.10;;;7.70;99.90;;;;;;4996803;28;20042;-70
2023/12/19 12:10:18;;;;;;;1.33;1.17;;;7.80;99.90;;;;;;4994425;28;20733;-72
2023/12/19 12:12:44;;;;;;;0.80;0.80;;;7.80;99.90;;;;;;4995461;28;20504;-72
2023/12/19 12:15:14;;;;;;;1.10;1.00;;;8.20;99.90;;;;;;4994956;28;20708;-72
2023/12/19 12:17:42;;;;;;;1.92;1.25;;;8.20;99.90;;;;;;4998407;28;20104;-72
2023/12/19 12:20:09;;;;;;;0.90;0.90;;;8.30;99.90;;;;;;4992996;28;20034;-72
2023/12/19 12:22:35;;;;;;;1.20;1.00;;;8.30;99.90;;;;;;4995575;28;20045;-73
2023/12/19 12:25:00;;;;;;;1.00;1.00;;;8.10;99.90;;;;;;4997375;28;20034;-73
2023/12/19 12:27:27;;;;;;;1.20;1.20;;;8.10;99.90;;;;;;4994963;28;20449;-73
2023/12/19 12:29:53;;;;;;;1.00;1.00;;;8.30;99.90;;;;;;4992763;28;20069;-73
2023/12/19 12:32:19;;;;;;;0.85;0.80;;;8.30;99.90;;;;;;4994272;28;20034;-72
2023/12/19 12:34:44;;;;;;;1.05;1.05;;;8.50;99.90;;;;;;4996863;28;20089;-72
2023/12/19 12:37:10;;;;;;;1.10;1.05;;;8.40;99.90;;;;;;4993241;28;20386;-71
2023/12/19 12:39:36;;;;;;;1.30;1.20;;;8.40;99.90;;;;;;4993723;28;20034;-71
2023/12/19 12:42:06;;;;;;;1.60;1.10;;;8.50;99.90;;;;;;4995260;28;20058;-73
2023/12/19 12:44:32;;;;;;;1.35;1.15;;;8.50;99.90;;;;;;4993681;28;20384;-71
2023/12/19 12:46:58;;;;;;;1.20;1.10;;;8.40;99.90;;;;;;4988602;28;20035;-71
2023/12/19 12:49:23;;;;;;;2.47;1.13;;;8.30;99.90;;;;;;4985046;28;20469;-73